sensor_id;sensor_type;location;lat;lon;timestamp;temperature;humidity
74534;SHT31;63012;51.096;-115.366;2023-05-18T00:02:09;21.21;46.49
74534;SHT31;63012;51.096;-115.366;2023-05-18T00:04:40;21.23;46.47
74534;SHT31;63012;51.096;-115.366;2023-05-18T00:07:08;21.24;46.50
74534;SHT31;63012;51.096;-115.366;2023-05-18T00:09:35;21.25;46.48
74534;SHT31;63012;51.096;-115.366;2023-05-18T00:12:03;21.25;46.48
74534;SHT31;63012;51.096;-115.366;2023-05-18T00:14:30;21.26;46.47
74534;SHT31;63012;51.096;-115.366;2023-05-18T00:16:58;21.27;46.43
74534;SHT31;63012;51.096;-115.366;2023-05-18T00:19:28;21.27;46.41
74534;SHT31;63012;51.096;-115.366;2023-05-18T00:21:56;21.26;46.38
74534;SHT31;63012;51.096;-115.366;2023-05-18T00:24:23;21.26;46.39
74534;SHT31;63012;51.096;-115.366;2023-05-18T00:26:50;21.27;46.37
74534;SHT31;63012;51.096;-115.366;2023-05-18T00:29:17;21.27;46.32
74534;SHT31;63012;51.096;-115.366;2023-05-18T00:31:44;21.27;46.27
74534;SHT31;63012;51.096;-115.366;2023-05-18T00:34:11;21.27;46.15
74534;SHT31;63012;51.096;-115.366;2023-05-18T00:36:39;21.26;46.06
74534;SHT31;63012;51.096;-115.366;2023-05-18T00:39:07;21.27;46.03
74534;SHT31;63012;51.096;-115.366;2023-05-18T00:41:34;21.27;46.00
74534;SHT31;63012;51.096;-115.366;2023-05-18T00:44:01;21.27;45.97
74534;SHT31;63012;51.096;-115.366;2023-05-18T00:46:29;21.27;46.00
74534;SHT31;63012;51.096;-115.366;2023-05-18T00:48:56;21.26;46.00
74534;SHT31;63012;51.096;-115.366;2023-05-18T00:51:26;21.27;46.00
74534;SHT31;63012;51.096;-115.366;2023-05-18T00:53:54;21.27;45.97
74534;SHT31;63012;51.096;-115.366;2023-05-18T00:56:24;21.27;45.90
74534;SHT31;63012;51.096;-115.366;2023-05-18T00:58:53;21.27;45.90
74534;SHT31;63012;51.096;-115.366;2023-05-18T01:01:29;21.28;45.71
74534;SHT31;63012;51.096;-115.366;2023-05-18T01:04:01;21.28;45.69
74534;SHT31;63012;51.096;-115.366;2023-05-18T01:06:29;21.28;45.67
74534;SHT31;63012;51.096;-115.366;2023-05-18T01:09:03;21.28;45.61
74534;SHT31;63012;51.096;-115.366;2023-05-18T01:17:23;21.28;45.49
74534;SHT31;63012;51.096;-115.366;2023-05-18T01:20:22;21.27;45.48
74534;SHT31;63012;51.096;-115.366;2023-05-18T01:23:01;21.28;45.38
74534;SHT31;63012;51.096;-115.366;2023-05-18T01:28:16;21.28;45.26
74534;SHT31;63012;51.096;-115.366;2023-05-18T01:30:52;21.28;45.06
74534;SHT31;63012;51.096;-115.366;2023-05-18T01:33:21;21.29;45.04
74534;SHT31;63012;51.096;-115.366;2023-05-18T01:35:49;21.29;45.05
74534;SHT31;63012;51.096;-115.366;2023-05-18T01:38:17;21.29;45.01
74534;SHT31;63012;51.096;-115.366;2023-05-18T01:43:42;21.29;45.01
74534;SHT31;63012;51.096;-115.366;2023-05-18T01:49:31;21.29;45.07
74534;SHT31;63012;51.096;-115.366;2023-05-18T01:52:04;21.28;45.09
74534;SHT31;63012;51.096;-115.366;2023-05-18T01:54:37;21.28;45.10
74534;SHT31;63012;51.096;-115.366;2023-05-18T01:57:10;21.28;45.09
74534;SHT31;63012;51.096;-115.366;2023-05-18T01:59:38;21.28;45.10
74534;SHT31;63012;51.096;-115.366;2023-05-18T02:02:06;21.28;45.02
74534;SHT31;63012;51.096;-115.366;2023-05-18T02:04:33;21.28;45.00
74534;SHT31;63012;51.096;-115.366;2023-05-18T02:07:00;21.28;44.99
74534;SHT31;63012;51.096;-115.366;2023-05-18T02:09:28;21.28;44.94
74534;SHT31;63012;51.096;-115.366;2023-05-18T02:11:55;21.27;44.90
74534;SHT31;63012;51.096;-115.366;2023-05-18T02:14:22;21.27;44.95
74534;SHT31;63012;51.096;-115.366;2023-05-18T02:16:49;21.26;44.89
74534;SHT31;63012;51.096;-115.366;2023-05-18T02:19:20;21.26;44.81
74534;SHT31;63012;51.096;-115.366;2023-05-18T02:21:49;21.26;44.79
74534;SHT31;63012;51.096;-115.366;2023-05-18T02:24:16;21.26;44.70
74534;SHT31;63012;51.096;-115.366;2023-05-18T02:26:44;21.26;44.70
74534;SHT31;63012;51.096;-115.366;2023-05-18T02:29:11;21.26;44.69
74534;SHT31;63012;51.096;-115.366;2023-05-18T02:31:39;21.25;44.71
74534;SHT31;63012;51.096;-115.366;2023-05-18T02:34:06;21.26;44.63
74534;SHT31;63012;51.096;-115.366;2023-05-18T02:36:33;21.26;44.53
74534;SHT31;63012;51.096;-115.366;2023-05-18T02:39:09;21.25;44.51
74534;SHT31;63012;51.096;-115.366;2023-05-18T02:41:37;21.25;44.42
74534;SHT31;63012;51.096;-115.366;2023-05-18T02:44:04;21.24;44.32
74534;SHT31;63012;51.096;-115.366;2023-05-18T02:46:31;21.25;44.11
74534;SHT31;63012;51.096;-115.366;2023-05-18T02:48:58;21.25;44.04
74534;SHT31;63012;51.096;-115.366;2023-05-18T02:51:26;21.24;44.02
74534;SHT31;63012;51.096;-115.366;2023-05-18T02:53:54;21.24;44.04
74534;SHT31;63012;51.096;-115.366;2023-05-18T02:56:21;21.24;44.10
74534;SHT31;63012;51.096;-115.366;2023-05-18T02:58:49;21.24;44.05
74534;SHT31;63012;51.096;-115.366;2023-05-18T03:01:22;21.23;44.09
74534;SHT31;63012;51.096;-115.366;2023-05-18T03:03:54;21.23;44.10
74534;SHT31;63012;51.096;-115.366;2023-05-18T03:06:24;21.22;44.22
74534;SHT31;63012;51.096;-115.366;2023-05-18T03:08:55;21.22;44.22
74534;SHT31;63012;51.096;-115.366;2023-05-18T03:11:22;21.23;44.28
74534;SHT31;63012;51.096;-115.366;2023-05-18T03:13:53;21.22;44.22
74534;SHT31;63012;51.096;-115.366;2023-05-18T03:16:20;21.22;44.22
74534;SHT31;63012;51.096;-115.366;2023-05-18T03:18:55;21.22;44.17
74534;SHT31;63012;51.096;-115.366;2023-05-18T03:21:23;21.21;44.24
74534;SHT31;63012;51.096;-115.366;2023-05-18T03:23:50;21.22;44.22
74534;SHT31;63012;51.096;-115.366;2023-05-18T03:26:17;21.22;44.21
74534;SHT31;63012;51.096;-115.366;2023-05-18T03:28:44;21.22;44.26
74534;SHT31;63012;51.096;-115.366;2023-05-18T03:31:11;21.22;44.23
74534;SHT31;63012;51.096;-115.366;2023-05-18T03:33:38;21.21;44.25
74534;SHT31;63012;51.096;-115.366;2023-05-18T03:36:05;21.21;44.23
74534;SHT31;63012;51.096;-115.366;2023-05-18T03:38:32;21.21;44.20
74534;SHT31;63012;51.096;-115.366;2023-05-18T03:41:00;21.20;44.06
74534;SHT31;63012;51.096;-115.366;2023-05-18T03:43:26;21.20;44.05
74534;SHT31;63012;51.096;-115.366;2023-05-18T03:45:56;21.21;43.95
74534;SHT31;63012;51.096;-115.366;2023-05-18T03:48:25;21.20;43.95
74534;SHT31;63012;51.096;-115.366;2023-05-18T03:50:52;21.20;44.03
74534;SHT31;63012;51.096;-115.366;2023-05-18T03:53:20;21.19;44.02
74534;SHT31;63012;51.096;-115.366;2023-05-18T03:55:47;21.19;44.06
74534;SHT31;63012;51.096;-115.366;2023-05-18T03:58:16;21.19;44.06
74534;SHT31;63012;51.096;-115.366;2023-05-18T04:00:46;21.19;44.03
74534;SHT31;63012;51.096;-115.366;2023-05-18T04:03:13;21.19;44.01
74534;SHT31;63012;51.096;-115.366;2023-05-18T04:05:41;21.18;44.00
74534;SHT31;63012;51.096;-115.366;2023-05-18T04:08:10;21.19;44.00
74534;SHT31;63012;51.096;-115.366;2023-05-18T04:10:42;21.18;43.92
74534;SHT31;63012;51.096;-115.366;2023-05-18T04:13:09;21.17;43.90
74534;SHT31;63012;51.096;-115.366;2023-05-18T04:15:36;21.17;43.82
74534;SHT31;63012;51.096;-115.366;2023-05-18T04:18:04;21.16;43.97
74534;SHT31;63012;51.096;-115.366;2023-05-18T04:20:32;21.17;44.11
74534;SHT31;63012;51.096;-115.366;2023-05-18T04:22:59;21.16;44.02
74534;SHT31;63012;51.096;-115.366;2023-05-18T04:25:27;21.17;43.98
74534;SHT31;63012;51.096;-115.366;2023-05-18T04:27:54;21.17;43.99
74534;SHT31;63012;51.096;-115.366;2023-05-18T04:30:22;21.17;43.64
74534;SHT31;63012;51.096;-115.366;2023-05-18T04:32:53;21.16;43.76
74534;SHT31;63012;51.096;-115.366;2023-05-18T04:35:22;21.17;44.04
74534;SHT31;63012;51.096;-115.366;2023-05-18T04:37:51;21.17;44.19
74534;SHT31;63012;51.096;-115.366;2023-05-18T04:40:19;21.17;44.01
74534;SHT31;63012;51.096;-115.366;2023-05-18T04:42:46;21.17;44.00
74534;SHT31;63012;51.096;-115.366;2023-05-18T04:45:14;21.17;44.20
74534;SHT31;63012;51.096;-115.366;2023-05-18T04:47:44;21.17;44.27
74534;SHT31;63012;51.096;-115.366;2023-05-18T04:50:17;21.18;44.26
74534;SHT31;63012;51.096;-115.366;2023-05-18T04:52:46;21.17;44.28
74534;SHT31;63012;51.096;-115.366;2023-05-18T04:55:17;21.18;44.27
74534;SHT31;63012;51.096;-115.366;2023-05-18T04:57:55;21.17;44.30
74534;SHT31;63012;51.096;-115.366;2023-05-18T05:00:24;21.16;44.30
74534;SHT31;63012;51.096;-115.366;2023-05-18T05:02:53;21.16;44.30
74534;SHT31;63012;51.096;-115.366;2023-05-18T05:05:21;21.16;44.34
74534;SHT31;63012;51.096;-115.366;2023-05-18T05:07:50;21.16;44.38
74534;SHT31;63012;51.096;-115.366;2023-05-18T05:10:21;21.15;44.39
74534;SHT31;63012;51.096;-115.366;2023-05-18T05:12:48;21.15;44.38
74534;SHT31;63012;51.096;-115.366;2023-05-18T05:15:16;21.15;44.42
74534;SHT31;63012;51.096;-115.366;2023-05-18T05:17:47;21.15;44.47
74534;SHT31;63012;51.096;-115.366;2023-05-18T05:20:15;21.15;44.56
74534;SHT31;63012;51.096;-115.366;2023-05-18T05:22:42;21.16;44.63
74534;SHT31;63012;51.096;-115.366;2023-05-18T05:25:09;21.15;44.62
74534;SHT31;63012;51.096;-115.366;2023-05-18T05:27:36;21.15;44.64
74534;SHT31;63012;51.096;-115.366;2023-05-18T05:30:03;21.15;44.69
74534;SHT31;63012;51.096;-115.366;2023-05-18T05:32:31;21.16;44.69
74534;SHT31;63012;51.096;-115.366;2023-05-18T05:35:00;21.15;44.68
74534;SHT31;63012;51.096;-115.366;2023-05-18T05:37:28;21.14;44.60
74534;SHT31;63012;51.096;-115.366;2023-05-18T05:39:54;21.13;44.60
74534;SHT31;63012;51.096;-115.366;2023-05-18T05:42:21;21.14;44.60
74534;SHT31;63012;51.096;-115.366;2023-05-18T05:44:49;21.14;44.59
74534;SHT31;63012;51.096;-115.366;2023-05-18T05:47:16;21.13;44.52
74534;SHT31;63012;51.096;-115.366;2023-05-18T05:49:43;21.13;44.50
74534;SHT31;63012;51.096;-115.366;2023-05-18T05:52:10;21.12;44.45
74534;SHT31;63012;51.096;-115.366;2023-05-18T05:54:38;21.12;44.42
74534;SHT31;63012;51.096;-115.366;2023-05-18T05:57:06;21.12;44.40
74534;SHT31;63012;51.096;-115.366;2023-05-18T05:59:33;21.10;44.36
74534;SHT31;63012;51.096;-115.366;2023-05-18T06:02:00;21.10;44.33
74534;SHT31;63012;51.096;-115.366;2023-05-18T06:04:27;21.09;44.32
74534;SHT31;63012;51.096;-115.366;2023-05-18T06:06:54;21.08;44.30
74534;SHT31;63012;51.096;-115.366;2023-05-18T06:09:21;21.07;44.28
74534;SHT31;63012;51.096;-115.366;2023-05-18T06:11:48;21.06;44.24
74534;SHT31;63012;51.096;-115.366;2023-05-18T06:14:17;21.06;44.21
74534;SHT31;63012;51.096;-115.366;2023-05-18T06:16:44;21.05;44.20
74534;SHT31;63012;51.096;-115.366;2023-05-18T06:19:11;21.05;44.20
74534;SHT31;63012;51.096;-115.366;2023-05-18T06:21:38;21.04;44.18
74534;SHT31;63012;51.096;-115.366;2023-05-18T06:24:05;21.03;44.20
74534;SHT31;63012;51.096;-115.366;2023-05-18T06:26:32;21.02;44.20
74534;SHT31;63012;51.096;-115.366;2023-05-18T06:28:59;21.01;44.20
74534;SHT31;63012;51.096;-115.366;2023-05-18T06:31:26;21.01;44.20
74534;SHT31;63012;51.096;-115.366;2023-05-18T06:33:53;20.99;44.19
74534;SHT31;63012;51.096;-115.366;2023-05-18T06:36:20;20.98;44.17
74534;SHT31;63012;51.096;-115.366;2023-05-18T06:38:47;20.97;44.13
74534;SHT31;63012;51.096;-115.366;2023-05-18T06:41:14;20.96;44.12
74534;SHT31;63012;51.096;-115.366;2023-05-18T06:43:41;20.95;44.10
74534;SHT31;63012;51.096;-115.366;2023-05-18T06:46:08;20.94;44.11
74534;SHT31;63012;51.096;-115.366;2023-05-18T06:48:43;20.93;44.10
74534;SHT31;63012;51.096;-115.366;2023-05-18T06:51:11;20.92;44.10
74534;SHT31;63012;51.096;-115.366;2023-05-18T06:53:41;20.91;44.10
74534;SHT31;63012;51.096;-115.366;2023-05-18T06:56:08;20.91;44.09
74534;SHT31;63012;51.096;-115.366;2023-05-18T06:58:38;20.90;44.10
74534;SHT31;63012;51.096;-115.366;2023-05-18T07:01:06;20.88;44.07
74534;SHT31;63012;51.096;-115.366;2023-05-18T07:03:36;20.88;44.03
74534;SHT31;63012;51.096;-115.366;2023-05-18T07:06:03;20.86;44.08
74534;SHT31;63012;51.096;-115.366;2023-05-18T07:08:30;20.86;44.03
74534;SHT31;63012;51.096;-115.366;2023-05-18T07:10:58;20.85;44.05
74534;SHT31;63012;51.096;-115.366;2023-05-18T07:13:26;20.83;44.05
74534;SHT31;63012;51.096;-115.366;2023-05-18T07:15:54;20.82;44.03
74534;SHT31;63012;51.096;-115.366;2023-05-18T07:18:21;20.82;44.05
74534;SHT31;63012;51.096;-115.366;2023-05-18T07:20:48;20.81;44.09
74534;SHT31;63012;51.096;-115.366;2023-05-18T07:23:16;20.80;44.06
74534;SHT31;63012;51.096;-115.366;2023-05-18T07:25:43;20.79;44.06
74534;SHT31;63012;51.096;-115.366;2023-05-18T07:28:11;20.77;44.01
74534;SHT31;63012;51.096;-115.366;2023-05-18T07:30:38;20.76;44.01
74534;SHT31;63012;51.096;-115.366;2023-05-18T07:33:05;20.76;43.83
74534;SHT31;63012;51.096;-115.366;2023-05-18T07:35:32;20.75;43.72
74534;SHT31;63012;51.096;-115.366;2023-05-18T07:37:59;20.74;43.37
74534;SHT31;63012;51.096;-115.366;2023-05-18T07:40:25;20.73;43.21
74534;SHT31;63012;51.096;-115.366;2023-05-18T07:42:53;20.72;42.93
74534;SHT31;63012;51.096;-115.366;2023-05-18T07:45:19;20.71;42.88
74534;SHT31;63012;51.096;-115.366;2023-05-18T07:47:48;20.69;42.82
74534;SHT31;63012;51.096;-115.366;2023-05-18T07:50:15;20.68;42.74
74534;SHT31;63012;51.096;-115.366;2023-05-18T07:52:42;20.67;42.69
74534;SHT31;63012;51.096;-115.366;2023-05-18T07:55:09;20.65;42.69
74534;SHT31;63012;51.096;-115.366;2023-05-18T07:57:37;20.64;42.60
74534;SHT31;63012;51.096;-115.366;2023-05-18T08:00:05;20.63;42.62
74534;SHT31;63012;51.096;-115.366;2023-05-18T08:02:34;20.62;42.42
74534;SHT31;63012;51.096;-115.366;2023-05-18T08:05:02;20.61;42.40
74534;SHT31;63012;51.096;-115.366;2023-05-18T08:07:30;20.59;42.33
74534;SHT31;63012;51.096;-115.366;2023-05-18T08:09:57;20.58;42.40
74534;SHT31;63012;51.096;-115.366;2023-05-18T08:12:24;20.56;42.29
74534;SHT31;63012;51.096;-115.366;2023-05-18T08:14:51;20.55;42.32
74534;SHT31;63012;51.096;-115.366;2023-05-18T08:17:18;20.54;42.11
74534;SHT31;63012;51.096;-115.366;2023-05-18T08:19:45;20.53;41.82
74534;SHT31;63012;51.096;-115.366;2023-05-18T08:22:13;20.51;41.83
74534;SHT31;63012;51.096;-115.366;2023-05-18T08:24:40;20.51;41.91
74534;SHT31;63012;51.096;-115.366;2023-05-18T08:27:07;20.49;41.79
74534;SHT31;63012;51.096;-115.366;2023-05-18T08:29:35;20.49;41.84
74534;SHT31;63012;51.096;-115.366;2023-05-18T08:32:04;20.47;41.55
74534;SHT31;63012;51.096;-115.366;2023-05-18T08:34:32;20.46;41.57
74534;SHT31;63012;51.096;-115.366;2023-05-18T08:37:00;20.46;41.67
74534;SHT31;63012;51.096;-115.366;2023-05-18T08:39:27;20.44;41.88
74534;SHT31;63012;51.096;-115.366;2023-05-18T08:41:59;20.43;41.88
74534;SHT31;63012;51.096;-115.366;2023-05-18T08:45:21;20.42;41.85
74534;SHT31;63012;51.096;-115.366;2023-05-18T08:48:10;20.39;41.82
74534;SHT31;63012;51.096;-115.366;2023-05-18T08:50:41;20.38;41.96
74534;SHT31;63012;51.096;-115.366;2023-05-18T08:53:11;20.37;41.92
74534;SHT31;63012;51.096;-115.366;2023-05-18T08:55:39;20.35;41.88
74534;SHT31;63012;51.096;-115.366;2023-05-18T08:58:08;20.35;41.94
74534;SHT31;63012;51.096;-115.366;2023-05-18T09:00:40;20.34;42.08
74534;SHT31;63012;51.096;-115.366;2023-05-18T09:03:07;20.32;41.95
74534;SHT31;63012;51.096;-115.366;2023-05-18T09:05:35;20.31;41.92
74534;SHT31;63012;51.096;-115.366;2023-05-18T09:08:03;20.30;41.85
74534;SHT31;63012;51.096;-115.366;2023-05-18T09:10:32;20.28;41.93
74534;SHT31;63012;51.096;-115.366;2023-05-18T09:12:59;20.26;41.92
74534;SHT31;63012;51.096;-115.366;2023-05-18T09:15:30;20.25;41.89
74534;SHT31;63012;51.096;-115.366;2023-05-18T09:17:59;20.24;41.85
74534;SHT31;63012;51.096;-115.366;2023-05-18T09:20:27;20.23;41.92
74534;SHT31;63012;51.096;-115.366;2023-05-18T09:22:55;20.21;41.95
74534;SHT31;63012;51.096;-115.366;2023-05-18T09:29:17;20.17;42.01
74534;SHT31;63012;51.096;-115.366;2023-05-18T09:35:27;20.12;42.04
74534;SHT31;63012;51.096;-115.366;2023-05-18T09:37:56;20.11;42.03
74534;SHT31;63012;51.096;-115.366;2023-05-18T09:40:29;20.09;42.03
74534;SHT31;63012;51.096;-115.366;2023-05-18T09:42:57;20.07;42.04
74534;SHT31;63012;51.096;-115.366;2023-05-18T09:45:31;20.06;42.05
74534;SHT31;63012;51.096;-115.366;2023-05-18T09:47:58;20.04;42.08
74534;SHT31;63012;51.096;-115.366;2023-05-18T09:50:25;20.03;42.04
74534;SHT31;63012;51.096;-115.366;2023-05-18T09:52:52;20.02;42.04
74534;SHT31;63012;51.096;-115.366;2023-05-18T09:55:19;20.00;42.10
74534;SHT31;63012;51.096;-115.366;2023-05-18T09:57:50;20.00;42.11
74534;SHT31;63012;51.096;-115.366;2023-05-18T10:00:18;19.99;42.19
74534;SHT31;63012;51.096;-115.366;2023-05-18T10:02:46;19.97;42.20
74534;SHT31;63012;51.096;-115.366;2023-05-18T10:05:26;19.96;42.19
74534;SHT31;63012;51.096;-115.366;2023-05-18T10:07:58;19.95;42.08
74534;SHT31;63012;51.096;-115.366;2023-05-18T10:10:26;19.93;42.15
74534;SHT31;63012;51.096;-115.366;2023-05-18T10:12:57;19.93;42.10
74534;SHT31;63012;51.096;-115.366;2023-05-18T10:15:24;19.91;42.09
74534;SHT31;63012;51.096;-115.366;2023-05-18T10:17:54;19.90;42.01
74534;SHT31;63012;51.096;-115.366;2023-05-18T10:20:24;19.88;41.98
74534;SHT31;63012;51.096;-115.366;2023-05-18T10:22:53;19.87;41.99
74534;SHT31;63012;51.096;-115.366;2023-05-18T10:25:25;19.85;41.96
74534;SHT31;63012;51.096;-115.366;2023-05-18T10:27:59;19.84;42.01
74534;SHT31;63012;51.096;-115.366;2023-05-18T10:30:31;19.83;42.03
74534;SHT31;63012;51.096;-115.366;2023-05-18T10:33:01;19.82;42.06
74534;SHT31;63012;51.096;-115.366;2023-05-18T10:35:29;19.81;42.05
74534;SHT31;63012;51.096;-115.366;2023-05-18T10:37:58;19.80;42.03
74534;SHT31;63012;51.096;-115.366;2023-05-18T10:40:28;19.78;42.04
74534;SHT31;63012;51.096;-115.366;2023-05-18T10:42:55;19.77;42.05
74534;SHT31;63012;51.096;-115.366;2023-05-18T10:45:23;19.75;42.00
74534;SHT31;63012;51.096;-115.366;2023-05-18T10:47:51;19.74;41.95
74534;SHT31;63012;51.096;-115.366;2023-05-18T10:50:21;19.73;42.07
74534;SHT31;63012;51.096;-115.366;2023-05-18T10:52:50;19.72;42.14
74534;SHT31;63012;51.096;-115.366;2023-05-18T10:55:18;19.71;42.17
74534;SHT31;63012;51.096;-115.366;2023-05-18T10:57:46;19.71;42.16
74534;SHT31;63012;51.096;-115.366;2023-05-18T11:00:24;19.70;42.21
74534;SHT31;63012;51.096;-115.366;2023-05-18T11:02:51;19.69;42.26
74534;SHT31;63012;51.096;-115.366;2023-05-18T11:05:22;19.69;42.32
74534;SHT31;63012;51.096;-115.366;2023-05-18T11:07:58;19.68;42.35
74534;SHT31;63012;51.096;-115.366;2023-05-18T11:10:43;19.66;42.40
74534;SHT31;63012;51.096;-115.366;2023-05-18T11:13:13;19.65;42.37
74534;SHT31;63012;51.096;-115.366;2023-05-18T11:18:33;19.63;42.40
74534;SHT31;63012;51.096;-115.366;2023-05-18T11:21:16;19.62;42.40
74534;SHT31;63012;51.096;-115.366;2023-05-18T11:26:56;19.58;42.40
74534;SHT31;63012;51.096;-115.366;2023-05-18T11:29:40;19.58;42.40
74534;SHT31;63012;51.096;-115.366;2023-05-18T11:32:22;19.56;42.39
74534;SHT31;63012;51.096;-115.366;2023-05-18T11:34:54;19.55;42.39
74534;SHT31;63012;51.096;-115.366;2023-05-18T11:38:04;19.54;42.40
74534;SHT31;63012;51.096;-115.366;2023-05-18T11:43:18;19.51;42.38
74534;SHT31;63012;51.096;-115.366;2023-05-18T11:45:56;19.50;42.33
74534;SHT31;63012;51.096;-115.366;2023-05-18T11:48:26;19.48;42.33
74534;SHT31;63012;51.096;-115.366;2023-05-18T11:50:56;19.46;42.30
74534;SHT31;63012;51.096;-115.366;2023-05-18T11:53:23;19.45;42.30
74534;SHT31;63012;51.096;-115.366;2023-05-18T11:55:52;19.44;42.29
74534;SHT31;63012;51.096;-115.366;2023-05-18T11:58:24;19.43;42.29
74534;SHT31;63012;51.096;-115.366;2023-05-18T12:00:51;19.41;42.24
74534;SHT31;63012;51.096;-115.366;2023-05-18T12:03:22;19.39;42.25
74534;SHT31;63012;51.096;-115.366;2023-05-18T12:05:50;19.38;42.26
74534;SHT31;63012;51.096;-115.366;2023-05-18T12:08:18;19.36;42.30
74534;SHT31;63012;51.096;-115.366;2023-05-18T12:10:53;19.35;42.29
74534;SHT31;63012;51.096;-115.366;2023-05-18T12:13:21;19.33;42.30
74534;SHT31;63012;51.096;-115.366;2023-05-18T12:15:48;19.32;42.30
74534;SHT31;63012;51.096;-115.366;2023-05-18T12:18:17;19.31;42.32
74534;SHT31;63012;51.096;-115.366;2023-05-18T12:20:44;19.30;42.32
74534;SHT31;63012;51.096;-115.366;2023-05-18T12:23:15;19.29;42.20
74534;SHT31;63012;51.096;-115.366;2023-05-18T12:25:42;19.29;42.20
74534;SHT31;63012;51.096;-115.366;2023-05-18T12:28:09;19.29;42.18
74534;SHT31;63012;51.096;-115.366;2023-05-18T12:30:38;19.28;42.11
74534;SHT31;63012;51.096;-115.366;2023-05-18T12:33:08;19.28;41.99
74534;SHT31;63012;51.096;-115.366;2023-05-18T12:35:39;19.28;41.89
74534;SHT31;63012;51.096;-115.366;2023-05-18T12:38:07;19.27;41.88
74534;SHT31;63012;51.096;-115.366;2023-05-18T12:40:34;19.27;41.91
74534;SHT31;63012;51.096;-115.366;2023-05-18T12:43:08;19.26;41.94
74534;SHT31;63012;51.096;-115.366;2023-05-18T12:45:36;19.25;41.92
74534;SHT31;63012;51.096;-115.366;2023-05-18T12:48:03;19.24;41.89
74534;SHT31;63012;51.096;-115.366;2023-05-18T12:50:31;19.24;41.81
74534;SHT31;63012;51.096;-115.366;2023-05-18T12:52:59;19.22;41.76
74534;SHT31;63012;51.096;-115.366;2023-05-18T12:55:26;19.22;41.77
74534;SHT31;63012;51.096;-115.366;2023-05-18T13:00:43;19.20;42.02
74534;SHT31;63012;51.096;-115.366;2023-05-18T13:03:13;19.20;42.00
74534;SHT31;63012;51.096;-115.366;2023-05-18T13:05:44;19.21;41.99
74534;SHT31;63012;51.096;-115.366;2023-05-18T13:08:27;19.21;41.99
74534;SHT31;63012;51.096;-115.366;2023-05-18T13:11:03;19.22;41.94
74534;SHT31;63012;51.096;-115.366;2023-05-18T13:13:32;19.21;41.89
74534;SHT31;63012;51.096;-115.366;2023-05-18T13:16:00;19.21;41.83
74534;SHT31;63012;51.096;-115.366;2023-05-18T13:18:27;19.22;41.75
74534;SHT31;63012;51.096;-115.366;2023-05-18T13:20:55;19.21;41.66
74534;SHT31;63012;51.096;-115.366;2023-05-18T13:23:23;19.21;41.66
74534;SHT31;63012;51.096;-115.366;2023-05-18T13:25:54;19.20;41.55
74534;SHT31;63012;51.096;-115.366;2023-05-18T13:28:22;19.20;41.51
74534;SHT31;63012;51.096;-115.366;2023-05-18T13:30:49;19.19;41.49
74534;SHT31;63012;51.096;-115.366;2023-05-18T13:33:16;19.18;41.49
74534;SHT31;63012;51.096;-115.366;2023-05-18T13:35:43;19.18;41.47
74534;SHT31;63012;51.096;-115.366;2023-05-18T13:38:11;19.17;41.53
74534;SHT31;63012;51.096;-115.366;2023-05-18T13:40:40;19.16;41.57
74534;SHT31;63012;51.096;-115.366;2023-05-18T13:43:07;19.15;41.50
74534;SHT31;63012;51.096;-115.366;2023-05-18T13:45:35;19.16;41.57
74534;SHT31;63012;51.096;-115.366;2023-05-18T13:48:02;19.17;41.57
74534;SHT31;63012;51.096;-115.366;2023-05-18T13:50:31;19.16;41.51
74534;SHT31;63012;51.096;-115.366;2023-05-18T13:52:58;19.17;41.43
74534;SHT31;63012;51.096;-115.366;2023-05-18T13:55:26;19.17;41.41
74534;SHT31;63012;51.096;-115.366;2023-05-18T13:57:52;19.17;41.36
74534;SHT31;63012;51.096;-115.366;2023-05-18T14:00:20;19.16;41.30
74534;SHT31;63012;51.096;-115.366;2023-05-18T14:02:47;19.16;41.33
74534;SHT31;63012;51.096;-115.366;2023-05-18T14:05:14;19.16;41.37
74534;SHT31;63012;51.096;-115.366;2023-05-18T14:07:42;19.16;41.40
74534;SHT31;63012;51.096;-115.366;2023-05-18T14:10:10;19.16;41.44
74534;SHT31;63012;51.096;-115.366;2023-05-18T14:12:38;19.14;41.43
74534;SHT31;63012;51.096;-115.366;2023-05-18T14:15:08;19.15;41.50
74534;SHT31;63012;51.096;-115.366;2023-05-18T14:17:38;19.14;41.50
74534;SHT31;63012;51.096;-115.366;2023-05-18T14:20:05;19.12;41.45
74534;SHT31;63012;51.096;-115.366;2023-05-18T14:22:33;19.12;41.44
74534;SHT31;63012;51.096;-115.366;2023-05-18T14:25:00;19.11;41.48
74534;SHT31;63012;51.096;-115.366;2023-05-18T14:27:27;19.11;41.50
74534;SHT31;63012;51.096;-115.366;2023-05-18T14:29:54;19.11;41.50
74534;SHT31;63012;51.096;-115.366;2023-05-18T14:32:22;19.13;41.46
74534;SHT31;63012;51.096;-115.366;2023-05-18T14:34:50;19.14;41.50
74534;SHT31;63012;51.096;-115.366;2023-05-18T14:37:20;19.14;41.51
74534;SHT31;63012;51.096;-115.366;2023-05-18T14:39:47;19.14;41.54
74534;SHT31;63012;51.096;-115.366;2023-05-18T14:42:14;19.15;41.56
74534;SHT31;63012;51.096;-115.366;2023-05-18T14:44:41;19.14;41.54
74534;SHT31;63012;51.096;-115.366;2023-05-18T14:47:08;19.14;41.56
74534;SHT31;63012;51.096;-115.366;2023-05-18T14:49:35;19.13;41.57
74534;SHT31;63012;51.096;-115.366;2023-05-18T14:52:03;19.13;41.58
74534;SHT31;63012;51.096;-115.366;2023-05-18T14:54:30;19.13;41.60
74534;SHT31;63012;51.096;-115.366;2023-05-18T14:56:57;19.13;41.59
74534;SHT31;63012;51.096;-115.366;2023-05-18T14:59:25;19.12;41.57
74534;SHT31;63012;51.096;-115.366;2023-05-18T15:01:54;19.12;41.59
74534;SHT31;63012;51.096;-115.366;2023-05-18T15:04:21;19.11;41.59
74534;SHT31;63012;51.096;-115.366;2023-05-18T15:06:49;19.10;41.58
74534;SHT31;63012;51.096;-115.366;2023-05-18T15:09:17;19.11;41.58
74534;SHT31;63012;51.096;-115.366;2023-05-18T15:11:44;19.11;41.60
74534;SHT31;63012;51.096;-115.366;2023-05-18T15:14:11;19.09;41.74
74534;SHT31;63012;51.096;-115.366;2023-05-18T15:16:38;19.08;41.89
74534;SHT31;63012;51.096;-115.366;2023-05-18T15:19:06;19.09;41.88
74534;SHT31;63012;51.096;-115.366;2023-05-18T15:21:34;19.07;41.87
74534;SHT31;63012;51.096;-115.366;2023-05-18T15:24:00;19.07;41.86
74534;SHT31;63012;51.096;-115.366;2023-05-18T15:26:28;19.06;41.89
74534;SHT31;63012;51.096;-115.366;2023-05-18T15:28:55;19.05;41.94
74534;SHT31;63012;51.096;-115.366;2023-05-18T15:31:22;19.05;41.99
74534;SHT31;63012;51.096;-115.366;2023-05-18T15:33:49;19.05;42.01